sensor_id;sensor_type;location;lat;lon;timestamp;temperature;humidity
65074;DHT22;52218;51.224;-2.328;2022-08-19T00:01:44;19.90;99.90
65074;DHT22;52218;51.224;-2.328;2022-08-19T00:05:33;19.90;99.90
65074;DHT22;52218;51.224;-2.328;2022-08-19T00:09:17;19.80;99.90
65074;DHT22;52218;51.224;-2.328;2022-08-19T00:13:00;19.80;99.90
65074;DHT22;52218;51.224;-2.328;2022-08-19T00:16:44;19.80;99.90
65074;DHT22;52218;51.224;-2.328;2022-08-19T00:20:26;19.80;99.90
65074;DHT22;52218;51.224;-2.328;2022-08-19T00:24:10;19.80;99.90
65074;DHT22;52218;51.224;-2.328;2022-08-19T00:27:55;19.80;99.90
65074;DHT22;52218;51.224;-2.328;2022-08-19T00:31:37;19.80;99.90
65074;DHT22;52218;51.224;-2.328;2022-08-19T00:35:19;19.80;99.90
65074;DHT22;52218;51.224;-2.328;2022-08-19T00:39:01;19.80;99.90
65074;DHT22;52218;51.224;-2.328;2022-08-19T00:42:44;19.80;99.90
65074;DHT22;52218;51.224;-2.328;2022-08-19T00:46:27;19.90;99.90
65074;DHT22;52218;51.224;-2.328;2022-08-19T00:50:11;19.90;99.90
65074;DHT22;52218;51.224;-2.328;2022-08-19T00:53:55;19.90;99.90
65074;DHT22;52218;51.224;-2.328;2022-08-19T00:57:41;19.90;99.90
65074;DHT22;52218;51.224;-2.328;2022-08-19T01:01:23;19.90;99.90
65074;DHT22;52218;51.224;-2.328;2022-08-19T01:05:09;19.90;99.90
65074;DHT22;52218;51.224;-2.328;2022-08-19T01:08:54;19.90;99.90
65074;DHT22;52218;51.224;-2.328;2022-08-19T01:12:37;19.90;99.90
65074;DHT22;52218;51.224;-2.328;2022-08-19T01:16:21;19.90;99.90
65074;DHT22;52218;51.224;-2.328;2022-08-19T01:20:05;19.90;99.90
65074;DHT22;52218;51.224;-2.328;2022-08-19T01:23:49;19.80;99.90
65074;DHT22;52218;51.224;-2.328;2022-08-19T01:27:42;19.80;99.90
65074;DHT22;52218;51.224;-2.328;2022-08-19T01:31:28;19.70;99.90
65074;DHT22;52218;51.224;-2.328;2022-08-19T01:35:14;19.70;99.90
65074;DHT22;52218;51.224;-2.328;2022-08-19T01:39:00;19.70;99.90
65074;DHT22;52218;51.224;-2.328;2022-08-19T01:42:43;19.60;99.90
65074;DHT22;52218;51.224;-2.328;2022-08-19T01:46:25;19.60;99.90
65074;DHT22;52218;51.224;-2.328;2022-08-19T01:50:09;19.60;99.90
65074;DHT22;52218;51.224;-2.328;2022-08-19T01:53:51;19.60;99.90
65074;DHT22;52218;51.224;-2.328;2022-08-19T01:57:34;19.50;99.90
65074;DHT22;52218;51.224;-2.328;2022-08-19T02:01:16;19.50;99.90
65074;DHT22;52218;51.224;-2.328;2022-08-19T02:04:59;19.40;99.90
65074;DHT22;52218;51.224;-2.328;2022-08-19T02:08:41;19.30;99.90
65074;DHT22;52218;51.224;-2.328;2022-08-19T02:12:23;19.30;99.90
65074;DHT22;52218;51.224;-2.328;2022-08-19T02:16:05;19.20;99.90
65074;DHT22;52218;51.224;-2.328;2022-08-19T02:19:47;19.10;99.90
65074;DHT22;52218;51.224;-2.328;2022-08-19T02:23:31;19.00;99.90
65074;DHT22;52218;51.224;-2.328;2022-08-19T02:27:14;18.90;99.90
65074;DHT22;52218;51.224;-2.328;2022-08-19T02:30:56;18.80;99.90
65074;DHT22;52218;51.224;-2.328;2022-08-19T02:34:38;18.70;99.90
65074;DHT22;52218;51.224;-2.328;2022-08-19T02:38:20;18.70;99.90
65074;DHT22;52218;51.224;-2.328;2022-08-19T02:42:08;18.60;99.90
65074;DHT22;52218;51.224;-2.328;2022-08-19T02:45:50;18.50;99.90
65074;DHT22;52218;51.224;-2.328;2022-08-19T02:49:32;18.50;99.90
65074;DHT22;52218;51.224;-2.328;2022-08-19T02:53:15;18.50;99.90
65074;DHT22;52218;51.224;-2.328;2022-08-19T02:56:57;18.60;99.90
65074;DHT22;52218;51.224;-2.328;2022-08-19T03:00:51;18.60;99.90
65074;DHT22;52218;51.224;-2.328;2022-08-19T03:04:34;18.60;99.90
65074;DHT22;52218;51.224;-2.328;2022-08-19T03:08:16;18.60;99.90
65074;DHT22;52218;51.224;-2.328;2022-08-19T03:11:58;18.60;99.90
65074;DHT22;52218;51.224;-2.328;2022-08-19T03:15:42;18.60;99.90
65074;DHT22;52218;51.224;-2.328;2022-08-19T03:19:24;18.60;99.90
65074;DHT22;52218;51.224;-2.328;2022-08-19T03:23:06;18.60;99.90
65074;DHT22;52218;51.224;-2.328;2022-08-19T03:26:53;18.60;99.90
65074;DHT22;52218;51.224;-2.328;2022-08-19T03:30:40;18.60;99.90
65074;DHT22;52218;51.224;-2.328;2022-08-19T03:34:28;18.60;99.90
65074;DHT22;52218;51.224;-2.328;2022-08-19T03:38:10;18.60;99.90
65074;DHT22;52218;51.224;-2.328;2022-08-19T03:41:53;18.60;99.90
65074;DHT22;52218;51.224;-2.328;2022-08-19T03:46:19;18.60;99.90
65074;DHT22;52218;51.224;-2.328;2022-08-19T03:50:02;18.60;99.90
65074;DHT22;52218;51.224;-2.328;2022-08-19T03:53:45;18.60;99.90
65074;DHT22;52218;51.224;-2.328;2022-08-19T03:57:27;18.60;99.90
65074;DHT22;52218;51.224;-2.328;2022-08-19T04:01:16;18.60;99.90
65074;DHT22;52218;51.224;-2.328;2022-08-19T04:04:59;18.50;99.90
65074;DHT22;52218;51.224;-2.328;2022-08-19T04:08:42;18.50;99.90
65074;DHT22;52218;51.224;-2.328;2022-08-19T04:12:24;18.50;99.90
65074;DHT22;52218;51.224;-2.328;2022-08-19T04:16:08;18.50;99.90
65074;DHT22;52218;51.224;-2.328;2022-08-19T04:19:51;18.50;99.90
65074;DHT22;52218;51.224;-2.328;2022-08-19T04:23:35;18.50;99.90
65074;DHT22;52218;51.224;-2.328;2022-08-19T04:27:26;18.50;99.90
65074;DHT22;52218;51.224;-2.328;2022-08-19T04:31:16;18.50;99.90
65074;DHT22;52218;51.224;-2.328;2022-08-19T04:34:58;18.50;99.90
65074;DHT22;52218;51.224;-2.328;2022-08-19T04:39:04;18.50;99.90
65074;DHT22;52218;51.224;-2.328;2022-08-19T04:42:47;18.40;99.90
65074;DHT22;52218;51.224;-2.328;2022-08-19T04:46:29;18.40;99.90
65074;DHT22;52218;51.224;-2.328;2022-08-19T04:50:32;18.40;99.90
65074;DHT22;52218;51.224;-2.328;2022-08-19T04:54:16;18.30;99.90
65074;DHT22;52218;51.224;-2.328;2022-08-19T04:58:18;18.30;99.90
65074;DHT22;52218;51.224;-2.328;2022-08-19T05:02:00;18.30;99.90
65074;DHT22;52218;51.224;-2.328;2022-08-19T05:05:47;18.30;99.90
65074;DHT22;52218;51.224;-2.328;2022-08-19T05:09:32;18.30;99.90
65074;DHT22;52218;51.224;-2.328;2022-08-19T05:13:34;18.20;99.90
65074;DHT22;52218;51.224;-2.328;2022-08-19T05:17:16;18.20;99.90
65074;DHT22;52218;51.224;-2.328;2022-08-19T05:21:10;18.20;99.90
65074;DHT22;52218;51.224;-2.328;2022-08-19T05:25:14;18.10;99.90
65074;DHT22;52218;51.224;-2.328;2022-08-19T05:28:56;18.00;99.90
65074;DHT22;52218;51.224;-2.328;2022-08-19T05:32:39;18.10;99.90
65074;DHT22;52218;51.224;-2.328;2022-08-19T05:36:21;18.00;99.90
65074;DHT22;52218;51.224;-2.328;2022-08-19T05:40:04;17.90;99.90
65074;DHT22;52218;51.224;-2.328;2022-08-19T05:43:46;17.90;99.90
65074;DHT22;52218;51.224;-2.328;2022-08-19T05:47:28;17.80;99.90
65074;DHT22;52218;51.224;-2.328;2022-08-19T05:51:10;17.80;99.90
65074;DHT22;52218;51.224;-2.328;2022-08-19T05:54:53;17.70;99.90
65074;DHT22;52218;51.224;-2.328;2022-08-19T05:58:38;17.70;99.90
65074;DHT22;52218;51.224;-2.328;2022-08-19T06:02:20;17.70;99.90
65074;DHT22;52218;51.224;-2.328;2022-08-19T06:06:02;17.60;99.90
65074;DHT22;52218;51.224;-2.328;2022-08-19T06:09:44;17.70;99.90
65074;DHT22;52218;51.224;-2.328;2022-08-19T06:13:43;17.60;99.90
65074;DHT22;52218;51.224;-2.328;2022-08-19T06:17:26;17.60;99.90
65074;DHT22;52218;51.224;-2.328;2022-08-19T06:21:08;17.70;99.90
65074;DHT22;52218;51.224;-2.328;2022-08-19T06:24:50;17.70;99.90
65074;DHT22;52218;51.224;-2.328;2022-08-19T06:28:34;17.80;99.90
65074;DHT22;52218;51.224;-2.328;2022-08-19T06:32:17;17.90;99.90
65074;DHT22;52218;51.224;-2.328;2022-08-19T06:36:00;18.00;99.90
65074;DHT22;52218;51.224;-2.328;2022-08-19T06:39:43;18.20;99.90
65074;DHT22;52218;51.224;-2.328;2022-08-19T06:43:26;18.30;99.90
65074;DHT22;52218;51.224;-2.328;2022-08-19T06:47:13;18.40;99.50
65074;DHT22;52218;51.224;-2.328;2022-08-19T06:51:05;18.50;99.60
65074;DHT22;52218;51.224;-2.328;2022-08-19T06:54:49;18.60;99.10
65074;DHT22;52218;51.224;-2.328;2022-08-19T06:58:37;18.80;99.10
65074;DHT22;52218;51.224;-2.328;2022-08-19T07:02:20;18.90;98.60
65074;DHT22;52218;51.224;-2.328;2022-08-19T07:06:11;19.20;98.10
65074;DHT22;52218;51.224;-2.328;2022-08-19T07:10:14;19.50;97.50
65074;DHT22;52218;51.224;-2.328;2022-08-19T07:13:57;20.00;96.50
65074;DHT22;52218;51.224;-2.328;2022-08-19T07:17:39;20.20;95.80
65074;DHT22;52218;51.224;-2.328;2022-08-19T07:21:25;20.20;95.30
65074;DHT22;52218;51.224;-2.328;2022-08-19T07:25:11;20.00;94.40
65074;DHT22;52218;51.224;-2.328;2022-08-19T07:28:56;19.80;94.30
65074;DHT22;52218;51.224;-2.328;2022-08-19T07:32:40;19.80;92.70
65074;DHT22;52218;51.224;-2.328;2022-08-19T07:36:25;19.70;92.00
65074;DHT22;52218;51.224;-2.328;2022-08-19T07:40:13;19.80;91.30
65074;DHT22;52218;51.224;-2.328;2022-08-19T07:43:56;19.90;91.10
65074;DHT22;52218;51.224;-2.328;2022-08-19T07:47:38;20.00;90.50
65074;DHT22;52218;51.224;-2.328;2022-08-19T07:51:31;20.20;90.30
65074;DHT22;52218;51.224;-2.328;2022-08-19T07:55:22;20.40;88.00
65074;DHT22;52218;51.224;-2.328;2022-08-19T07:59:24;20.60;88.00
65074;DHT22;52218;51.224;-2.328;2022-08-19T08:03:06;20.90;85.60
65074;DHT22;52218;51.224;-2.328;2022-08-19T08:06:48;21.20;84.90
65074;DHT22;52218;51.224;-2.328;2022-08-19T08:10:48;21.60;83.50
65074;DHT22;52218;51.224;-2.328;2022-08-19T08:14:46;21.90;83.10
65074;DHT22;52218;51.224;-2.328;2022-08-19T08:18:29;22.10;83.40
65074;DHT22;52218;51.224;-2.328;2022-08-19T08:22:14;22.20;81.40
65074;DHT22;52218;51.224;-2.328;2022-08-19T08:26:16;22.20;81.30
65074;DHT22;52218;51.224;-2.328;2022-08-19T08:30:00;22.10;80.50
65074;DHT22;52218;51.224;-2.328;2022-08-19T08:33:44;22.10;79.50
65074;DHT22;52218;51.224;-2.328;2022-08-19T08:37:26;22.10;79.80
65074;DHT22;52218;51.224;-2.328;2022-08-19T08:49:01;22.20;78.40
65074;DHT22;52218;51.224;-2.328;2022-08-19T08:52:48;22.20;80.80
65074;DHT22;52218;51.224;-2.328;2022-08-19T08:56:33;22.60;79.30
65074;DHT22;52218;51.224;-2.328;2022-08-19T09:00:19;23.10;75.30
65074;DHT22;52218;51.224;-2.328;2022-08-19T09:04:06;23.50;75.00
65074;DHT22;52218;51.224;-2.328;2022-08-19T09:12:04;23.60;72.40
65074;DHT22;52218;51.224;-2.328;2022-08-19T09:16:30;23.70;75.30
65074;DHT22;52218;51.224;-2.328;2022-08-19T09:20:24;23.80;69.10
65074;DHT22;52218;51.224;-2.328;2022-08-19T09:24:19;23.60;71.30
65074;DHT22;52218;51.224;-2.328;2022-08-19T09:28:11;23.50;68.50
65074;DHT22;52218;51.224;-2.328;2022-08-19T09:32:03;23.50;69.30
65074;DHT22;52218;51.224;-2.328;2022-08-19T09:36:07;23.70;68.90
65074;DHT22;52218;51.224;-2.328;2022-08-19T09:39:50;24.30;66.80
65074;DHT22;52218;51.224;-2.328;2022-08-19T09:43:33;24.90;66.10
65074;DHT22;52218;51.224;-2.328;2022-08-19T09:47:28;25.70;62.80
65074;DHT22;52218;51.224;-2.328;2022-08-19T09:51:14;26.60;60.90
65074;DHT22;52218;51.224;-2.328;2022-08-19T09:54:57;27.40;58.40
65074;DHT22;52218;51.224;-2.328;2022-08-19T09:58:39;28.10;56.60
65074;DHT22;52218;51.224;-2.328;2022-08-19T10:02:21;28.60;54.00
65074;DHT22;52218;51.224;-2.328;2022-08-19T10:06:09;28.90;52.60
65074;DHT22;52218;51.224;-2.328;2022-08-19T10:09:57;28.70;52.90
65074;DHT22;52218;51.224;-2.328;2022-08-19T10:13:40;28.50;53.40
65074;DHT22;52218;51.224;-2.328;2022-08-19T10:17:22;28.30;53.80
65074;DHT22;52218;51.224;-2.328;2022-08-19T10:21:18;28.20;53.40
65074;DHT22;52218;51.224;-2.328;2022-08-19T10:25:01;28.00;54.00
65074;DHT22;52218;51.224;-2.328;2022-08-19T10:28:43;28.50;52.60
65074;DHT22;52218;51.224;-2.328;2022-08-19T10:32:27;28.70;52.10
65074;DHT22;52218;51.224;-2.328;2022-08-19T10:36:20;28.90;51.20
65074;DHT22;52218;51.224;-2.328;2022-08-19T10:40:06;29.20;51.70
65074;DHT22;52218;51.224;-2.328;2022-08-19T10:43:54;29.00;51.10
65074;DHT22;52218;51.224;-2.328;2022-08-19T10:47:36;28.60;51.40
65074;DHT22;52218;51.224;-2.328;2022-08-19T10:51:18;28.60;51.70
65074;DHT22;52218;51.224;-2.328;2022-08-19T10:55:28;28.20;51.90
65074;DHT22;52218;51.224;-2.328;2022-08-19T10:59:29;28.30;51.70
65074;DHT22;52218;51.224;-2.328;2022-08-19T11:03:16;28.70;51.20
65074;DHT22;52218;51.224;-2.328;2022-08-19T11:06:58;28.40;50.90
65074;DHT22;52218;51.224;-2.328;2022-08-19T11:10:43;27.60;52.90
65074;DHT22;52218;51.224;-2.328;2022-08-19T11:14:31;26.70;54.50
65074;DHT22;52218;51.224;-2.328;2022-08-19T11:18:15;25.90;56.50
65074;DHT22;52218;51.224;-2.328;2022-08-19T11:21:59;25.40;57.90
65074;DHT22;52218;51.224;-2.328;2022-08-19T11:25:44;25.10;59.00
65074;DHT22;52218;51.224;-2.328;2022-08-19T11:29:27;25.30;58.40
65074;DHT22;52218;51.224;-2.328;2022-08-19T11:33:09;25.90;58.10
65074;DHT22;52218;51.224;-2.328;2022-08-19T11:36:53;26.90;57.60
65074;DHT22;52218;51.224;-2.328;2022-08-19T11:40:36;27.70;55.40
65074;DHT22;52218;51.224;-2.328;2022-08-19T11:44:19;28.30;52.90
65074;DHT22;52218;51.224;-2.328;2022-08-19T11:48:01;28.90;53.20
65074;DHT22;52218;51.224;-2.328;2022-08-19T11:51:43;29.40;51.50
65074;DHT22;52218;51.224;-2.328;2022-08-19T11:55:25;29.60;51.70
65074;DHT22;52218;51.224;-2.328;2022-08-19T11:59:08;30.00;50.80
65074;DHT22;52218;51.224;-2.328;2022-08-19T12:02:55;30.20;50.70
65074;DHT22;52218;51.224;-2.328;2022-08-19T12:06:39;30.10;50.20
65074;DHT22;52218;51.224;-2.328;2022-08-19T12:10:21;29.10;51.60
65074;DHT22;52218;51.224;-2.328;2022-08-19T12:14:09;28.50;52.40
65074;DHT22;52218;51.224;-2.328;2022-08-19T12:17:57;28.30;53.70
65074;DHT22;52218;51.224;-2.328;2022-08-19T12:21:39;28.30;50.90
65074;DHT22;52218;51.224;-2.328;2022-08-19T12:25:21;27.90;50.90
65074;DHT22;52218;51.224;-2.328;2022-08-19T12:29:04;27.20;52.50
65074;DHT22;52218;51.224;-2.328;2022-08-19T12:32:46;27.00;53.00
65074;DHT22;52218;51.224;-2.328;2022-08-19T12:36:28;27.10;52.80
65074;DHT22;52218;51.224;-2.328;2022-08-19T12:40:11;27.40;52.60
65074;DHT22;52218;51.224;-2.328;2022-08-19T12:43:53;27.50;52.30
65074;DHT22;52218;51.224;-2.328;2022-08-19T12:47:36;27.00;53.10
65074;DHT22;52218;51.224;-2.328;2022-08-19T12:51:21;26.40;53.30
65074;DHT22;52218;51.224;-2.328;2022-08-19T12:55:05;25.90;55.10
65074;DHT22;52218;51.224;-2.328;2022-08-19T12:58:47;26.20;54.50
65074;DHT22;52218;51.224;-2.328;2022-08-19T13:02:33;26.90;54.00
65074;DHT22;52218;51.224;-2.328;2022-08-19T13:06:19;27.50;52.50
65074;DHT22;52218;51.224;-2.328;2022-08-19T13:10:02;28.10;52.40
65074;DHT22;52218;51.224;-2.328;2022-08-19T13:13:46;28.00;51.80
65074;DHT22;52218;51.224;-2.328;2022-08-19T13:17:29;28.20;51.50
65074;DHT22;52218;51.224;-2.328;2022-08-19T13:21:11;28.90;49.80
65074;DHT22;52218;51.224;-2.328;2022-08-19T13:24:54;29.30;49.40
65074;DHT22;52218;51.224;-2.328;2022-08-19T13:28:36;29.20;48.70
65074;DHT22;52218;51.224;-2.328;2022-08-19T13:32:37;28.50;49.90
65074;DHT22;52218;51.224;-2.328;2022-08-19T13:36:38;27.70;50.90
65074;DHT22;52218;51.224;-2.328;2022-08-19T13:40:23;26.90;52.10
65074;DHT22;52218;51.224;-2.328;2022-08-19T13:44:07;26.60;52.80
65074;DHT22;52218;51.224;-2.328;2022-08-19T13:47:51;26.40;53.60
65074;DHT22;52218;51.224;-2.328;2022-08-19T13:51:41;26.20;53.80
65074;DHT22;52218;51.224;-2.328;2022-08-19T13:55:24;26.40;53.80
65074;DHT22;52218;51.224;-2.328;2022-08-19T13:59:07;26.70;53.60
65074;DHT22;52218;51.224;-2.328;2022-08-19T14:02:51;26.90;52.30
65074;DHT22;52218;51.224;-2.328;2022-08-19T14:06:33;27.40;52.00
65074;DHT22;52218;51.224;-2.328;2022-08-19T14:10:16;27.70;51.90
65074;DHT22;52218;51.224;-2.328;2022-08-19T14:13:58;28.00;52.60
65074;DHT22;52218;51.224;-2.328;2022-08-19T14:17:44;28.40;50.00
65074;DHT22;52218;51.224;-2.328;2022-08-19T14:21:28;28.20;50.30
65074;DHT22;52218;51.224;-2.328;2022-08-19T14:25:14;28.20;50.40
65074;DHT22;52218;51.224;-2.328;2022-08-19T14:28:56;28.20;50.00
65074;DHT22;52218;51.224;-2.328;2022-08-19T14:32:39;28.30;50.60
65074;DHT22;52218;51.224;-2.328;2022-08-19T14:36:21;28.50;49.90
65074;DHT22;52218;51.224;-2.328;2022-08-19T14:40:04;28.70;50.20
65074;DHT22;52218;51.224;-2.328;2022-08-19T14:43:48;28.90;49.10
65074;DHT22;52218;51.224;-2.328;2022-08-19T14:47:31;28.90;48.90
65074;DHT22;52218;51.224;-2.328;2022-08-19T14:51:14;28.80;48.40
65074;DHT22;52218;51.224;-2.328;2022-08-19T14:54:56;28.70;48.10
65074;DHT22;52218;51.224;-2.328;2022-08-19T14:58:41;28.70;47.90
65074;DHT22;52218;51.224;-2.328;2022-08-19T15:02:23;28.60;48.30
65074;DHT22;52218;51.224;-2.328;2022-08-19T15:06:15;28.70;47.80
65074;DHT22;52218;51.224;-2.328;2022-08-19T15:09:58;28.60;47.60
65074;DHT22;52218;51.224;-2.328;2022-08-19T15:13:40;28.60;48.00
65074;DHT22;52218;51.224;-2.328;2022-08-19T15:17:22;28.50;47.60
65074;DHT22;52218;51.224;-2.328;2022-08-19T15:21:27;28.40;48.20
65074;DHT22;52218;51.224;-2.328;2022-08-19T15:25:11;28.40;48.60
65074;DHT22;52218;51.224;-2.328;2022-08-19T15:28:55;28.30;48.40
65074;DHT22;52218;51.224;-2.328;2022-08-19T15:32:38;28.20;48.80
65074;DHT22;52218;51.224;-2.328;2022-08-19T15:36:20;28.10;49.00
65074;DHT22;52218;51.224;-2.328;2022-08-19T15:40:03;28.10;48.60
65074;DHT22;52218;51.224;-2.328;2022-08-19T15:43:47;28.00;49.10
65074;DHT22;52218;51.224;-2.328;2022-08-19T15:47:29;27.70;49.30
65074;DHT22;52218;51.224;-2.328;2022-08-19T15:51:16;27.30;49.00
65074;DHT22;52218;51.224;-2.328;2022-08-19T15:54:59;26.70;50.70
65074;DHT22;52218;51.224;-2.328;2022-08-19T15:58:41;26.30;50.50
65074;DHT22;52218;51.224;-2.328;2022-08-19T16:02:42;25.70;52.00
65074;DHT22;52218;51.224;-2.328;2022-08-19T16:06:50;25.30;52.50
65074;DHT22;52218;51.224;-2.328;2022-08-19T16:10:32;24.90;53.50
65074;DHT22;52218;51.224;-2.328;2022-08-19T16:14:16;24.60;54.60
65074;DHT22;52218;51.224;-2.328;2022-08-19T16:17:59;24.40;55.40
65074;DHT22;52218;51.224;-2.328;2022-08-19T16:21:46;24.20;55.30
65074;DHT22;52218;51.224;-2.328;2022-08-19T16:25:28;24.00;55.90
65074;DHT22;52218;51.224;-2.328;2022-08-19T16:29:11;23.70;56.90
65074;DHT22;52218;51.224;-2.328;2022-08-19T16:32:54;23.50;57.20
65074;DHT22;52218;51.224;-2.328;2022-08-19T16:36:36;23.40;57.10
65074;DHT22;52218;51.224;-2.328;2022-08-19T16:40:22;23.30;58.40
65074;DHT22;52218;51.224;-2.328;2022-08-19T16:44:06;23.10;60.00
65074;DHT22;52218;51.224;-2.328;2022-08-19T16:47:48;22.90;61.50
65074;DHT22;52218;51.224;-2.328;2022-08-19T16:51:31;22.60;63.10
65074;DHT22;52218;51.224;-2.328;2022-08-19T16:55:14;22.50;64.00
65074;DHT22;52218;51.224;-2.328;2022-08-19T16:58:57;22.40;64.10
65074;DHT22;52218;51.224;-2.328;2022-08-19T17:02:40;22.20;63.70
65074;DHT22;52218;51.224;-2.328;2022-08-19T17:06:25;22.10;63.70
65074;DHT22;52218;51.224;-2.328;2022-08-19T17:10:07;22.00;62.30
65074;DHT22;52218;51.224;-2.328;2022-08-19T17:13:50;21.90;61.30
65074;DHT22;52218;51.224;-2.328;2022-08-19T17:17:32;21.90;62.40
65074;DHT22;52218;51.224;-2.328;2022-08-19T17:21:14;21.80;61.70
65074;DHT22;52218;51.224;-2.328;2022-08-19T17:24:56;21.70;62.40
65074;DHT22;52218;51.224;-2.328;2022-08-19T17:28:39;21.60;62.30
65074;DHT22;52218;51.224;-2.328;2022-08-19T17:32:23;21.50;62.50
65074;DHT22;52218;51.224;-2.328;2022-08-19T17:36:06;21.40;63.10
65074;DHT22;52218;51.224;-2.328;2022-08-19T17:39:48;21.30;63.50
65074;DHT22;52218;51.224;-2.328;2022-08-19T17:43:32;21.40;63.70
65074;DHT22;52218;51.224;-2.328;2022-08-19T17:47:18;21.30;62.80
65074;DHT22;52218;51.224;-2.328;2022-08-19T17:55:06;21.20;62.60
65074;DHT22;52218;51.224;-2.328;2022-08-19T17:58:51;21.00;63.20
65074;DHT22;52218;51.224;-2.328;2022-08-19T18:02:52;20.90;63.40
65074;DHT22;52218;51.224;-2.328;2022-08-19T18:06:34;20.80;64.50
65074;DHT22;52218;51.224;-2.328;2022-08-19T18:10:21;20.70;65.90
65074;DHT22;52218;51.224;-2.328;2022-08-19T18:14:15;20.60;67.90
65074;DHT22;52218;51.224;-2.328;2022-08-19T18:17:57;20.60;68.70
65074;DHT22;52218;51.224;-2.328;2022-08-19T18:21:39;20.50;69.50
65074;DHT22;52218;51.224;-2.328;2022-08-19T18:25:24;20.40;70.40
65074;DHT22;52218;51.224;-2.328;2022-08-19T18:29:06;20.30;70.90
65074;DHT22;52218;51.224;-2.328;2022-08-19T18:32:51;20.20;71.10
65074;DHT22;52218;51.224;-2.328;2022-08-19T18:36:33;20.10;71.10
65074;DHT22;52218;51.224;-2.328;2022-08-19T18:40:33;19.90;71.30
65074;DHT22;52218;51.224;-2.328;2022-08-19T18:44:35;19.80;72.20
65074;DHT22;52218;51.224;-2.328;2022-08-19T18:48:40;19.70;73.10
65074;DHT22;52218;51.224;-2.328;2022-08-19T18:52:41;19.50;73.70
65074;DHT22;52218;51.224;-2.328;2022-08-19T18:56:24;19.40;75.00
65074;DHT22;52218;51.224;-2.328;2022-08-19T19:00:09;19.30;75.90
65074;DHT22;52218;51.224;-2.328;2022-08-19T19:03:54;19.10;76.60
65074;DHT22;52218;51.224;-2.328;2022-08-19T19:07:36;19.00;77.30
65074;DHT22;52218;51.224;-2.328;2022-08-19T19:11:27;18.90;78.40
65074;DHT22;52218;51.224;-2.328;2022-08-19T19:15:11;18.90;79.20
65074;DHT22;52218;51.224;-2.328;2022-08-19T19:18:53;18.80;80.50
65074;DHT22;52218;51.224;-2.328;2022-08-19T19:22:35;18.90;82.00
65074;DHT22;52218;51.224;-2.328;2022-08-19T19:26:17;18.80;83.10
65074;DHT22;52218;51.224;-2.328;2022-08-19T19:29:59;18.80;84.70
65074;DHT22;52218;51.224;-2.328;2022-08-19T19:33:42;18.80;85.90
65074;DHT22;52218;51.224;-2.328;2022-08-19T19:37:25;18.80;87.50
65074;DHT22;52218;51.224;-2.328;2022-08-19T19:41:07;18.80;87.80
65074;DHT22;52218;51.224;-2.328;2022-08-19T19:44:51;18.70;87.80
65074;DHT22;52218;51.224;-2.328;2022-08-19T19:48:33;18.70;87.30
65074;DHT22;52218;51.224;-2.328;2022-08-19T19:52:16;18.60;86.80
65074;DHT22;52218;51.224;-2.328;2022-08-19T19:55:58;18.60;87.40
65074;DHT22;52218;51.224;-2.328;2022-08-19T19:59:41;18.50;87.10
65074;DHT22;52218;51.224;-2.328;2022-08-19T20:03:32;18.50;87.20
65074;DHT22;52218;51.224;-2.328;2022-08-19T20:07:14;18.50;87.40
65074;DHT22;52218;51.224;-2.328;2022-08-19T20:11:00;18.50;87.80
65074;DHT22;52218;51.224;-2.328;2022-08-19T20:14:42;18.50;87.80
65074;DHT22;52218;51.224;-2.328;2022-08-19T20:18:24;18.50;87.60
65074;DHT22;52218;51.224;-2.328;2022-08-19T20:22:06;18.50;88.10
65074;DHT22;52218;51.224;-2.328;2022-08-19T20:25:49;18.50;89.20
65074;DHT22;52218;51.224;-2.328;2022-08-19T20:29:32;18.40;89.80
65074;DHT22;52218;51.224;-2.328;2022-08-19T20:33:21;18.30;89.20
65074;DHT22;52218;51.224;-2.328;2022-08-19T20:37:04;18.20;90.20
65074;DHT22;52218;51.224;-2.328;2022-08-19T20:40:46;18.10;90.20
65074;DHT22;52218;51.224;-2.328;2022-08-19T20:44:28;18.00;90.60
65074;DHT22;52218;51.224;-2.328;2022-08-19T20:48:10;17.90;91.00
65074;DHT22;52218;51.224;-2.328;2022-08-19T20:51:56;17.80;91.30
65074;DHT22;52218;51.224;-2.328;2022-08-19T20:55:41;17.70;91.60
65074;DHT22;52218;51.224;-2.328;2022-08-19T20:59:25;17.60;92.00
65074;DHT22;52218;51.224;-2.328;2022-08-19T21:03:07;17.50;92.20
65074;DHT22;52218;51.224;-2.328;2022-08-19T21:06:50;17.50;92.70
65074;DHT22;52218;51.224;-2.328;2022-08-19T21:10:31;17.40;93.00
65074;DHT22;52218;51.224;-2.328;2022-08-19T21:14:15;17.30;93.60
65074;DHT22;52218;51.224;-2.328;2022-08-19T21:17:58;17.30;93.50
65074;DHT22;52218;51.224;-2.328;2022-08-19T21:21:40;17.30;93.70
65074;DHT22;52218;51.224;-2.328;2022-08-19T21:25:22;17.40;93.90
65074;DHT22;52218;51.224;-2.328;2022-08-19T21:29:04;17.40;93.80
65074;DHT22;52218;51.224;-2.328;2022-08-19T21:32:46;17.30;94.00
65074;DHT22;52218;51.224;-2.328;2022-08-19T21:36:33;17.30;94.20
65074;DHT22;52218;51.224;-2.328;2022-08-19T21:40:15;17.20;94.30
65074;DHT22;52218;51.224;-2.328;2022-08-19T21:43:58;17.20;94.40
65074;DHT22;52218;51.224;-2.328;2022-08-19T21:47:40;17.10;94.70
65074;DHT22;52218;51.224;-2.328;2022-08-19T21:51:22;17.00;94.70
65074;DHT22;52218;51.224;-2.328;2022-08-19T21:55:05;17.00;94.80
65074;DHT22;52218;51.224;-2.328;2022-08-19T21:58:47;17.00;94.90
65074;DHT22;52218;51.224;-2.328;2022-08-19T22:02:30;16.90;95.10
65074;DHT22;52218;51.224;-2.328;2022-08-19T22:06:12;16.80;95.10
65074;DHT22;52218;51.224;-2.328;2022-08-19T22:09:53;16.80;95.30
65074;DHT22;52218;51.224;-2.328;2022-08-19T22:13:35;16.80;95.30
65074;DHT22;52218;51.224;-2.328;2022-08-19T22:17:21;16.80;95.30
65074;DHT22;52218;51.224;-2.328;2022-08-19T22:21:03;16.70;95.40
65074;DHT22;52218;51.224;-2.328;2022-08-19T22:24:54;16.60;95.40
65074;DHT22;52218;51.224;-2.328;2022-08-19T22:28:41;16.60;95.50
65074;DHT22;52218;51.224;-2.328;2022-08-19T22:32:23;16.60;95.50
65074;DHT22;52218;51.224;-2.328;2022-08-19T22:36:09;16.60;95.60
65074;DHT22;52218;51.224;-2.328;2022-08-19T22:39:51;16.60;95.50
65074;DHT22;52218;51.224;-2.328;2022-08-19T22:43:34;16.60;95.60
65074;DHT22;52218;51.224;-2.328;2022-08-19T22:47:18;16.60;95.60
65074;DHT22;52218;51.224;-2.328;2022-08-19T22:51:00;16.60;95.60
65074;DHT22;52218;51.224;-2.328;2022-08-19T22:55:03;16.60;95.50
65074;DHT22;52218;51.224;-2.328;2022-08-19T22:58:47;16.60;95.50
65074;DHT22;52218;51.224;-2.328;2022-08-19T23:02:34;16.60;95.60
65074;DHT22;52218;51.224;-2.328;2022-08-19T23:06:32;16.50;95.70
65074;DHT22;52218;51.224;-2.328;2022-08-19T23:10:19;16.50;95.80
65074;DHT22;52218;51.224;-2.328;2022-08-19T23:14:09;16.40;95.90
65074;DHT22;52218;51.224;-2.328;2022-08-19T23:17:55;16.40;96.00
65074;DHT22;52218;51.224;-2.328;2022-08-19T23:21:39;16.30;96.10
65074;DHT22;52218;51.224;-2.328;2022-08-19T23:25:27;16.20;96.30
65074;DHT22;52218;51.224;-2.328;2022-08-19T23:29:12;16.20;96.40
65074;DHT22;52218;51.224;-2.328;2022-08-19T23:37:02;16.00;96.60
65074;DHT22;52218;51.224;-2.328;2022-08-19T23:40:44;16.00;96.90